createdAt,value
2023-02-17T00:00:29.093Z,70.78
2023-02-17T00:01:29.086Z,70.78
2023-02-17T00:02:29.083Z,70.78
2023-02-17T00:03:29.151Z,70.78
2023-02-17T00:04:29.035Z,70.78
2023-02-17T00:05:29.020Z,70.89
2023-02-17T00:06:29.020Z,70.89
2023-02-17T00:07:28.995Z,70.89
2023-02-17T00:08:28.982Z,70.89
2023-02-17T00:09:28.966Z,70.89
2023-02-17T00:10:28.955Z,70.89
2023-02-17T00:11:28.957Z,70.89
2023-02-17T00:12:28.950Z,70.89
2023-02-17T00:13:28.917Z,70.89
2023-02-17T00:14:28.898Z,70.89
2023-02-17T00:15:28.884Z,70.89
2023-02-17T00:16:28.877Z,70.89
2023-02-17T00:17:28.867Z,70.89
2023-02-17T00:18:28.853Z,70.89
2023-02-17T00:19:28.833Z,70.89
2023-02-17T00:20:28.816Z,70.89
2023-02-17T00:21:28.800Z,70.89
2023-02-17T00:22:28.788Z,70.89
2023-02-17T00:23:28.774Z,70.89
2023-02-17T00:24:28.763Z,70.89
2023-02-17T00:25:28.745Z,70.99
2023-02-17T00:26:28.744Z,70.89
2023-02-17T00:27:28.724Z,70.99
2023-02-17T00:28:28.732Z,70.99
2023-02-17T00:29:28.694Z,70.99
2023-02-17T00:30:28.793Z,70.99
2023-02-17T00:31:28.784Z,70.99
2023-02-17T00:32:28.665Z,70.99
2023-02-17T00:33:28.643Z,70.99
2023-02-17T00:34:28.630Z,70.99
2023-02-17T00:35:28.622Z,70.99
2023-02-17T00:36:28.605Z,70.99
2023-02-17T00:37:28.596Z,70.99
2023-02-17T00:38:28.576Z,70.99
2023-02-17T00:39:28.567Z,70.99
2023-02-17T00:40:28.550Z,70.99
2023-02-17T00:41:28.536Z,70.99
2023-02-17T00:42:28.522Z,70.99
2023-02-17T00:43:28.508Z,70.99
2023-02-17T00:44:28.520Z,70.99
2023-02-17T00:45:28.481Z,70.99
2023-02-17T00:46:28.588Z,70.99
2023-02-17T00:47:28.455Z,70.99
2023-02-17T00:48:28.488Z,70.99
2023-02-17T00:49:28.428Z,70.99
2023-02-17T00:50:28.416Z,70.99
2023-02-17T00:51:28.402Z,70.99
2023-02-17T00:52:28.390Z,71.09
2023-02-17T00:53:28.374Z,71.09
2023-02-17T00:54:28.363Z,71.09
2023-02-17T00:55:28.348Z,71.09
2023-02-17T00:56:28.335Z,71.09
2023-02-17T00:57:28.319Z,71.09
2023-02-17T00:58:28.311Z,71.09
2023-02-17T00:59:28.300Z,71.09
2023-02-17T01:00:28.307Z,71.09
2023-02-17T01:01:28.266Z,71.20
2023-02-17T01:02:28.256Z,71.20
2023-02-17T01:03:28.239Z,71.20
2023-02-17T01:04:28.269Z,71.20
2023-02-17T01:05:28.240Z,71.20
2023-02-17T01:06:28.205Z,71.20
2023-02-17T01:07:28.187Z,71.20
2023-02-17T01:08:28.173Z,71.20
2023-02-17T01:09:28.163Z,71.20
2023-02-17T01:10:28.144Z,71.20
2023-02-17T01:11:28.135Z,71.20
2023-02-17T01:12:28.117Z,71.20
2023-02-17T01:13:28.102Z,71.30
2023-02-17T01:14:28.103Z,71.30
2023-02-17T01:15:28.076Z,71.30
2023-02-17T01:16:28.189Z,71.30
2023-02-17T01:17:28.061Z,71.30
2023-02-17T01:18:28.039Z,71.30
2023-02-17T01:19:28.020Z,71.30
2023-02-17T01:20:28.010Z,71.30
2023-02-17T01:21:28.012Z,71.30
2023-02-17T01:22:27.980Z,71.30
2023-02-17T01:23:27.966Z,71.30
2023-02-17T01:24:27.954Z,71.30
2023-02-17T01:25:27.941Z,71.30
2023-02-17T01:26:27.930Z,71.30
2023-02-17T01:27:27.913Z,71.30
2023-02-17T01:28:27.908Z,71.30
2023-02-17T01:29:27.884Z,71.30
2023-02-17T01:30:27.928Z,71.20
2023-02-17T01:31:27.933Z,71.20
2023-02-17T01:32:27.874Z,71.20
2023-02-17T01:33:27.831Z,71.20
2023-02-17T01:34:27.816Z,71.30
2023-02-17T01:35:27.801Z,71.30
2023-02-17T01:36:27.786Z,71.30
2023-02-17T01:37:27.776Z,71.30
2023-02-17T01:38:27.759Z,71.30
2023-02-17T01:39:27.751Z,71.30
2023-02-17T01:40:27.736Z,71.30
2023-02-17T01:41:27.724Z,71.30
2023-02-17T01:42:27.702Z,71.30
2023-02-17T01:43:27.689Z,71.30
2023-02-17T01:44:27.676Z,71.30
2023-02-17T01:45:27.662Z,71.30
2023-02-17T01:46:27.682Z,71.30
2023-02-17T01:47:27.634Z,71.30
2023-02-17T01:48:27.669Z,71.40
2023-02-17T01:49:27.608Z,71.40
2023-02-17T01:50:27.592Z,71.40
2023-02-17T01:51:27.580Z,71.40
2023-02-17T01:52:27.562Z,71.40
2023-02-17T01:53:27.556Z,71.40
2023-02-17T01:54:27.538Z,71.40
2023-02-17T01:55:27.524Z,71.40
2023-02-17T01:56:27.511Z,71.40
2023-02-17T01:57:27.499Z,71.40
2023-02-17T01:58:27.484Z,71.40
2023-02-17T01:59:27.471Z,71.40
2023-02-17T02:00:27.457Z,71.40
2023-02-17T02:01:27.447Z,71.40
2023-02-17T02:02:27.544Z,71.40
2023-02-17T02:03:27.418Z,71.40
2023-02-17T02:04:27.426Z,71.40
2023-02-17T02:05:27.388Z,71.40
2023-02-17T02:06:27.375Z,71.40
2023-02-17T02:07:27.376Z,71.40
2023-02-17T02:08:27.348Z,71.40
2023-02-17T02:09:27.336Z,71.50
2023-02-17T02:10:27.320Z,71.50
2023-02-17T02:11:27.312Z,71.50
2023-02-17T02:12:27.301Z,71.50
2023-02-17T02:13:27.283Z,71.50
2023-02-17T02:14:27.269Z,71.50
2023-02-17T02:15:27.261Z,71.50
2023-02-17T02:16:27.325Z,71.50
2023-02-17T02:17:27.235Z,71.40
2023-02-17T02:18:27.216Z,71.50
2023-02-17T02:19:27.209Z,71.50
2023-02-17T02:20:27.217Z,71.50
2023-02-17T02:21:27.179Z,71.50
2023-02-17T02:22:27.164Z,71.50
2023-02-17T02:23:27.153Z,71.50
2023-02-17T02:24:27.136Z,71.50
2023-02-17T02:25:27.126Z,71.50
2023-02-17T02:26:27.119Z,71.50
2023-02-17T02:27:27.101Z,71.61
2023-02-17T02:28:27.085Z,71.50
2023-02-17T02:29:27.074Z,71.50
2023-02-17T02:30:27.090Z,71.50
2023-02-17T02:31:27.122Z,71.50
2023-02-17T02:32:27.034Z,71.50
2023-02-17T02:33:27.016Z,71.50
2023-02-17T02:34:27.002Z,71.50
2023-02-17T02:35:26.993Z,71.50
2023-02-17T02:36:27.010Z,71.50
2023-02-17T02:37:26.976Z,71.61
2023-02-17T02:38:26.947Z,71.50
2023-02-17T02:39:26.933Z,71.50
2023-02-17T02:40:26.923Z,71.61
2023-02-17T02:41:26.913Z,71.61
2023-02-17T02:42:26.894Z,71.61
2023-02-17T02:43:26.879Z,71.50
2023-02-17T02:44:26.868Z,71.50
2023-02-17T02:45:26.867Z,71.61
2023-02-17T02:46:26.838Z,71.61
2023-02-17T02:47:26.825Z,71.50
2023-02-17T02:48:26.812Z,71.50
2023-02-17T02:49:26.807Z,71.50
2023-02-17T02:50:26.785Z,71.50
2023-02-17T02:51:26.771Z,71.50
2023-02-17T02:52:26.823Z,71.50
2023-02-17T02:53:26.746Z,71.61
2023-02-17T02:54:26.736Z,71.61
2023-02-17T02:55:26.740Z,71.61
2023-02-17T02:56:26.704Z,71.61
2023-02-17T02:57:26.700Z,71.61
2023-02-17T02:58:26.682Z,71.61
2023-02-17T02:59:26.686Z,71.61
2023-02-17T03:00:26.656Z,71.61
2023-02-17T03:01:26.717Z,71.61
2023-02-17T03:02:26.621Z,71.61
2023-02-17T03:03:26.610Z,71.61
2023-02-17T03:04:26.622Z,71.61
2023-02-17T03:05:26.605Z,71.61
2023-02-17T03:06:26.565Z,71.61
2023-02-17T03:07:26.555Z,71.61
2023-02-17T03:08:26.563Z,71.61
2023-02-17T03:09:26.528Z,71.61
2023-02-17T03:10:26.510Z,71.61
2023-02-17T03:11:26.497Z,71.61
2023-02-17T03:12:26.487Z,71.71
2023-02-17T03:13:26.472Z,71.61
2023-02-17T03:14:26.467Z,71.71
2023-02-17T03:15:26.445Z,71.71
2023-02-17T03:16:26.442Z,71.71
2023-02-17T03:17:26.418Z,71.61
2023-02-17T03:18:26.413Z,71.61
2023-02-17T03:19:26.405Z,71.61
2023-02-17T03:20:26.379Z,71.61
2023-02-17T03:21:26.369Z,71.61
2023-02-17T03:22:26.347Z,71.61
2023-02-17T03:23:26.334Z,71.61
2023-02-17T03:24:26.456Z,71.61
2023-02-17T03:25:26.315Z,71.61
2023-02-17T03:26:26.294Z,71.61
2023-02-17T03:27:26.283Z,71.61
2023-02-17T03:28:26.270Z,71.61
2023-02-17T03:29:26.257Z,71.61
2023-02-17T03:30:26.259Z,71.61
2023-02-17T03:31:26.446Z,71.61
2023-02-17T03:32:26.238Z,71.61
2023-02-17T03:33:26.207Z,71.61
2023-02-17T03:34:26.188Z,71.61
2023-02-17T03:35:26.179Z,71.61
2023-02-17T03:36:26.162Z,71.61
2023-02-17T03:37:26.159Z,71.71
2023-02-17T03:38:26.134Z,71.71
2023-02-17T03:39:26.125Z,71.71
2023-02-17T03:40:26.131Z,71.71
2023-02-17T03:41:26.098Z,71.71
2023-02-17T03:42:26.081Z,71.71
2023-02-17T03:43:26.071Z,71.61
2023-02-17T03:44:26.060Z,71.61
2023-02-17T03:45:26.046Z,71.61
2023-02-17T03:46:26.026Z,71.71
2023-02-17T03:47:26.021Z,71.61
2023-02-17T03:48:25.999Z,71.61
2023-02-17T03:49:25.988Z,71.71
2023-02-17T03:50:25.981Z,71.61
2023-02-17T03:51:25.962Z,71.71
2023-02-17T03:52:25.947Z,71.71
2023-02-17T03:53:25.930Z,71.71
2023-02-17T03:54:25.918Z,71.71
2023-02-17T03:55:25.902Z,71.71
2023-02-17T03:56:25.912Z,71.71
2023-02-17T03:57:25.876Z,71.71
2023-02-17T03:58:25.860Z,71.71
2023-02-17T03:59:25.848Z,71.71
2023-02-17T04:00:25.833Z,71.71
2023-02-17T04:01:25.873Z,71.71
2023-02-17T04:02:25.809Z,71.71
2023-02-17T04:03:25.795Z,71.82
2023-02-17T04:04:25.828Z,71.82
2023-02-17T04:05:25.765Z,71.71
2023-02-17T04:06:25.751Z,71.71
2023-02-17T04:07:25.737Z,71.82
2023-02-17T04:08:25.723Z,71.71
2023-02-17T04:09:25.713Z,71.82
2023-02-17T04:10:25.695Z,71.82
2023-02-17T04:11:25.690Z,71.82
2023-02-17T04:12:25.692Z,71.71
2023-02-17T04:13:25.656Z,71.82
2023-02-17T04:14:25.640Z,71.82
2023-02-17T04:15:25.699Z,71.82
2023-02-17T04:16:25.614Z,71.82
2023-02-17T04:17:25.602Z,71.82
2023-02-17T04:18:25.587Z,71.82
2023-02-17T04:19:25.574Z,71.82
2023-02-17T04:20:25.557Z,71.82
2023-02-17T04:21:25.547Z,71.82
2023-02-17T04:22:25.534Z,71.82
2023-02-17T04:23:25.520Z,71.82
2023-02-17T04:24:25.506Z,71.82
2023-02-17T04:25:25.502Z,71.82
2023-02-17T04:26:25.478Z,71.82
2023-02-17T04:27:25.465Z,71.82
2023-02-17T04:28:25.480Z,71.82
2023-02-17T04:29:25.439Z,71.82
2023-02-17T04:30:25.536Z,71.82
2023-02-17T04:31:25.550Z,71.82
2023-02-17T04:32:25.399Z,71.82
2023-02-17T04:33:25.389Z,71.82
2023-02-17T04:34:26.380Z,71.82
2023-02-17T04:35:25.361Z,71.82
2023-02-17T04:36:25.348Z,71.82
2023-02-17T04:37:25.332Z,71.82
2023-02-17T04:38:25.318Z,71.82
2023-02-17T04:39:25.303Z,71.92
2023-02-17T04:40:25.287Z,71.82
2023-02-17T04:41:25.276Z,71.92
2023-02-17T04:42:25.266Z,71.92
2023-02-17T04:43:25.250Z,71.92
2023-02-17T04:44:25.261Z,71.92
2023-02-17T04:45:25.221Z,71.92
2023-02-17T04:46:25.251Z,71.92
2023-02-17T04:47:25.196Z,71.92
2023-02-17T04:48:25.177Z,71.92
2023-02-17T04:49:25.168Z,71.92
2023-02-17T04:50:25.152Z,71.92
2023-02-17T04:51:25.139Z,71.82
2023-02-17T04:52:25.126Z,71.82
2023-02-17T04:53:25.112Z,71.82
2023-02-17T04:54:25.097Z,71.82
2023-02-17T04:55:25.096Z,71.82
2023-02-17T04:56:25.070Z,71.82
2023-02-17T04:57:25.057Z,71.92
2023-02-17T04:58:25.042Z,71.92
2023-02-17T04:59:25.721Z,71.92
2023-02-17T05:00:25.039Z,71.92
2023-02-17T05:01:25.024Z,71.92
2023-02-17T05:02:24.988Z,71.92
2023-02-17T05:03:24.977Z,71.92
2023-02-17T05:04:25.085Z,71.92
2023-02-17T05:05:24.956Z,71.82
2023-02-17T05:06:24.944Z,71.82
2023-02-17T05:07:24.921Z,71.82
2023-02-17T05:08:24.908Z,71.82
2023-02-17T05:09:24.894Z,71.82
2023-02-17T05:10:24.887Z,71.82
2023-02-17T05:11:24.868Z,71.82
2023-02-17T05:12:24.855Z,71.82
2023-02-17T05:13:24.864Z,71.92
2023-02-17T05:14:24.831Z,71.92
2023-02-17T05:15:24.815Z,71.92
2023-02-17T05:16:24.859Z,71.92
2023-02-17T05:17:24.788Z,71.92
2023-02-17T05:18:24.786Z,71.92
2023-02-17T05:19:24.759Z,71.92
2023-02-17T05:20:24.746Z,71.92
2023-02-17T05:21:24.744Z,71.92
2023-02-17T05:22:24.719Z,71.92
2023-02-17T05:23:24.710Z,71.92
2023-02-17T05:24:24.693Z,71.92
2023-02-17T05:25:24.681Z,71.92
2023-02-17T05:26:24.670Z,71.92
2023-02-17T05:27:24.653Z,71.92
2023-02-17T05:28:24.646Z,71.92
2023-02-17T05:29:24.627Z,71.92
2023-02-17T05:30:24.670Z,71.92
2023-02-17T05:31:24.824Z,71.92
2023-02-17T05:32:24.607Z,71.92
2023-02-17T05:33:24.573Z,71.92
2023-02-17T05:34:24.558Z,71.92
2023-02-17T05:35:24.546Z,71.92
2023-02-17T05:36:24.532Z,71.92
2023-02-17T05:37:24.518Z,71.92
2023-02-17T05:38:24.508Z,71.92
2023-02-17T05:39:24.497Z,71.92
2023-02-17T05:40:24.477Z,71.92
2023-02-17T05:41:24.466Z,71.92
2023-02-17T05:42:24.454Z,71.92
2023-02-17T05:43:24.439Z,71.92
2023-02-17T05:44:24.434Z,71.92
2023-02-17T05:45:24.415Z,71.92
2023-02-17T05:46:24.445Z,71.92
2023-02-17T05:47:25.734Z,71.92
2023-02-17T05:48:24.397Z,71.92
2023-02-17T05:49:24.360Z,71.82
2023-02-17T05:50:24.345Z,71.92
2023-02-17T05:51:24.333Z,71.92
2023-02-17T05:52:24.325Z,71.82
2023-02-17T05:53:24.313Z,71.92
2023-02-17T05:54:24.299Z,71.82
2023-02-17T05:55:24.280Z,71.82
2023-02-17T05:56:24.277Z,71.82
2023-02-17T05:57:24.255Z,71.82
2023-02-17T05:58:24.241Z,71.82
2023-02-17T05:59:24.232Z,71.82
2023-02-17T06:00:24.214Z,71.92
2023-02-17T06:01:24.201Z,71.92
2023-02-17T06:02:24.188Z,71.92
2023-02-17T06:03:24.177Z,71.92
2023-02-17T06:04:24.475Z,71.92
2023-02-17T06:05:24.146Z,71.82
2023-02-17T06:06:24.136Z,71.82
2023-02-17T06:07:24.123Z,71.82
2023-02-17T06:08:24.114Z,71.82
2023-02-17T06:09:24.097Z,71.82
2023-02-17T06:10:24.083Z,71.82
2023-02-17T06:11:24.068Z,71.82
2023-02-17T06:12:24.069Z,71.82
2023-02-17T06:13:24.042Z,71.82
2023-02-17T06:14:24.029Z,71.82
2023-02-17T06:15:24.028Z,71.82
2023-02-17T06:16:24.045Z,71.82
2023-02-17T06:17:23.998Z,71.82
2023-02-17T06:18:23.978Z,71.92
2023-02-17T06:19:23.959Z,71.92
2023-02-17T06:20:23.984Z,72.02
2023-02-17T06:21:23.936Z,72.02
2023-02-17T06:22:23.927Z,71.92
2023-02-17T06:23:23.913Z,71.92
2023-02-17T06:24:23.896Z,71.92
2023-02-17T06:25:23.884Z,72.02
2023-02-17T06:26:23.871Z,72.12
2023-02-17T06:27:23.855Z,72.12
2023-02-17T06:28:23.846Z,72.12
2023-02-17T06:29:23.837Z,72.12
2023-02-17T06:30:23.857Z,72.22
2023-02-17T06:31:23.926Z,72.22
2023-02-17T06:32:23.790Z,72.22
2023-02-17T06:33:23.774Z,72.33
2023-02-17T06:34:23.770Z,72.33
2023-02-17T06:35:23.746Z,72.33
2023-02-17T06:36:23.762Z,72.33
2023-02-17T06:37:23.719Z,72.43
2023-02-17T06:38:23.806Z,72.43
2023-02-17T06:39:23.691Z,72.43
2023-02-17T06:40:23.680Z,72.54
2023-02-17T06:41:23.664Z,72.54
2023-02-17T06:42:23.657Z,72.54
2023-02-17T06:43:23.639Z,72.54
2023-02-17T06:44:23.625Z,72.54
2023-02-17T06:45:23.659Z,72.54
2023-02-17T06:46:23.599Z,72.54
2023-02-17T06:47:23.584Z,72.54
2023-02-17T06:48:23.575Z,72.54
2023-02-17T06:49:23.560Z,72.54
2023-02-17T06:50:23.552Z,72.54
2023-02-17T06:51:23.531Z,72.54
2023-02-17T06:52:23.543Z,72.54
2023-02-17T06:53:23.506Z,72.64
2023-02-17T06:54:23.492Z,72.64
2023-02-17T06:55:23.493Z,72.64
2023-02-17T06:56:23.467Z,72.64
2023-02-17T06:57:23.451Z,72.60
2023-02-17T06:58:23.453Z,72.74
2023-02-17T06:59:23.423Z,72.81
2023-02-17T07:00:23.419Z,72.85
2023-02-17T07:01:23.403Z,72.85
2023-02-17T07:02:23.569Z,72.95
2023-02-17T07:03:23.371Z,73.02
2023-02-17T07:04:23.360Z,73.02
2023-02-17T07:05:23.348Z,73.02
2023-02-17T07:06:23.337Z,73.02
2023-02-17T07:07:23.318Z,73.22
2023-02-17T07:08:23.340Z,73.22
2023-02-17T07:09:23.293Z,73.33
2023-02-17T07:10:23.282Z,73.33
2023-02-17T07:11:23.276Z,73.53
2023-02-17T07:12:23.253Z,73.53
2023-02-17T07:13:23.256Z,73.63
2023-02-17T07:14:24.971Z,73.84
2023-02-17T07:15:23.216Z,73.84
2023-02-17T07:16:23.289Z,73.74
2023-02-17T07:17:23.625Z,73.74
2023-02-17T07:18:23.185Z,73.74
2023-02-17T07:19:23.164Z,73.84
2023-02-17T07:20:23.156Z,73.84
2023-02-17T07:21:23.138Z,73.95
2023-02-17T07:22:23.126Z,73.95
2023-02-17T07:23:23.135Z,74.05
2023-02-17T07:24:23.136Z,73.95
2023-02-17T07:25:23.090Z,74.05
2023-02-17T07:26:23.074Z,74.18
2023-02-17T07:27:23.060Z,74.25
2023-02-17T07:28:23.046Z,74.15
2023-02-17T07:29:23.034Z,74.25
2023-02-17T07:30:23.059Z,74.56
2023-02-17T07:31:23.212Z,74.56
2023-02-17T07:32:22.995Z,74.67
2023-02-17T07:33:22.981Z,74.77
2023-02-17T07:34:22.978Z,74.77
2023-02-17T07:35:22.953Z,74.77
2023-02-17T07:36:22.951Z,74.77
2023-02-17T07:37:22.938Z,74.67
2023-02-17T07:38:22.917Z,74.67
2023-02-17T07:39:22.898Z,74.77
2023-02-17T07:40:22.924Z,74.87
2023-02-17T07:41:22.871Z,74.87
2023-02-17T07:42:22.858Z,74.98
2023-02-17T07:43:22.845Z,74.98
2023-02-17T07:44:22.840Z,74.98
2023-02-17T07:45:22.817Z,74.87
2023-02-17T07:46:22.912Z,74.98
2023-02-17T07:47:22.793Z,74.98
2023-02-17T07:48:22.781Z,75.07
2023-02-17T07:49:22.762Z,75.07
2023-02-17T07:50:22.752Z,75.07
2023-02-17T07:51:22.736Z,74.98
2023-02-17T07:52:22.724Z,75.07
2023-02-17T07:53:22.711Z,75.07
2023-02-17T07:54:22.747Z,75.07
2023-02-17T07:55:22.692Z,75.07
2023-02-17T07:56:22.691Z,75.07
2023-02-17T07:57:22.653Z,75.07
2023-02-17T07:58:22.640Z,75.07
2023-02-17T07:59:22.627Z,75.07
2023-02-17T08:00:22.615Z,75.18
2023-02-17T08:01:22.602Z,75.18
2023-02-17T08:02:22.634Z,75.28
2023-02-17T08:03:22.575Z,75.28
2023-02-17T08:04:22.682Z,75.28
2023-02-17T08:05:22.557Z,75.28
2023-02-17T08:06:22.539Z,75.28
2023-02-17T08:07:22.524Z,75.28
2023-02-17T08:08:22.511Z,75.39
2023-02-17T08:09:22.494Z,75.39
2023-02-17T08:10:22.485Z,75.49
2023-02-17T08:11:22.472Z,75.59
2023-02-17T08:12:22.492Z,75.59
2023-02-17T08:13:22.442Z,75.49
2023-02-17T08:14:22.530Z,75.70
2023-02-17T08:15:22.418Z,75.70
2023-02-17T08:16:22.419Z,75.80
2023-02-17T08:17:22.392Z,76.00
2023-02-17T08:18:22.409Z,76.11
2023-02-17T08:19:22.363Z,76.21
2023-02-17T08:20:22.354Z,76.00
2023-02-17T08:21:22.351Z,76.11
2023-02-17T08:22:22.334Z,76.11
2023-02-17T08:23:22.317Z,76.11
2023-02-17T08:24:22.303Z,76.42
2023-02-17T08:25:22.288Z,76.52
2023-02-17T08:26:22.274Z,76.62
2023-02-17T08:27:22.277Z,76.62
2023-02-17T08:28:22.276Z,76.52
2023-02-17T08:29:22.235Z,76.72
2023-02-17T08:30:22.283Z,77.14
2023-02-17T08:31:22.411Z,77.03
2023-02-17T08:32:22.195Z,77.24
2023-02-17T08:33:22.185Z,77.03
2023-02-17T08:34:22.286Z,77.34
2023-02-17T08:35:22.156Z,77.55
2023-02-17T08:36:22.173Z,77.45
2023-02-17T08:37:22.129Z,77.34
2023-02-17T08:38:22.119Z,77.55
2023-02-17T08:39:22.114Z,77.86
2023-02-17T08:40:22.095Z,77.75
2023-02-17T08:41:22.080Z,77.55
2023-02-17T08:42:22.073Z,77.75
2023-02-17T08:43:22.050Z,78.17
2023-02-17T08:44:22.113Z,78.79
2023-02-17T08:45:22.043Z,79.19
2023-02-17T08:46:22.138Z,79.30
2023-02-17T08:47:22.000Z,79.19
2023-02-17T08:48:22.020Z,79.10
2023-02-17T08:49:22.035Z,79.19
2023-02-17T08:50:21.995Z,79.30
2023-02-17T08:51:21.983Z,79.61
2023-02-17T08:52:21.929Z,79.61
2023-02-17T08:53:21.941Z,79.82
2023-02-17T08:54:21.918Z,79.71
2023-02-17T08:55:21.888Z,79.82
2023-02-17T08:56:21.938Z,79.51
2023-02-17T08:57:21.877Z,79.30
2023-02-17T08:58:21.910Z,80.02
2023-02-17T08:59:21.836Z,80.02
2023-02-17T09:00:21.860Z,80.23
2023-02-17T09:01:21.866Z,80.33
2023-02-17T09:02:21.827Z,80.64
2023-02-17T09:03:21.838Z,80.33
2023-02-17T09:04:21.879Z,79.92
2023-02-17T09:05:21.838Z,79.92
2023-02-17T09:06:21.758Z,80.02
2023-02-17T09:07:21.762Z,80.02
2023-02-17T09:08:21.775Z,80.23
2023-02-17T09:09:21.751Z,80.23
2023-02-17T09:10:21.695Z,80.12
2023-02-17T09:11:21.685Z,80.23
2023-02-17T09:12:21.675Z,80.02
2023-02-17T09:13:21.674Z,79.61
2023-02-17T09:14:21.680Z,79.10
2023-02-17T09:15:21.647Z,78.89
2023-02-17T09:16:21.666Z,79.10
2023-02-17T09:17:21.624Z,79.10
2023-02-17T09:18:21.648Z,78.99
2023-02-17T09:19:21.614Z,79.19
2023-02-17T09:20:25.003Z,79.30
2023-02-17T09:21:21.543Z,79.30
2023-02-17T09:22:31.568Z,79.51
2023-02-17T09:23:22.572Z,79.71
2023-02-17T09:24:21.513Z,79.92
2023-02-17T09:25:21.523Z,80.02
2023-02-17T09:26:21.509Z,79.92
2023-02-17T09:27:21.467Z,79.30
2023-02-17T09:28:21.470Z,78.68
2023-02-17T09:29:21.441Z,78.37
2023-02-17T09:30:21.478Z,78.17
2023-02-17T09:31:21.669Z,78.17
2023-02-17T09:32:21.489Z,78.07
2023-02-17T09:33:21.401Z,78.37
2023-02-17T09:34:21.407Z,78.13
2023-02-17T09:35:21.389Z,78.07
2023-02-17T09:36:21.408Z,77.65
2023-02-17T09:37:21.336Z,77.86
2023-02-17T09:38:21.323Z,78.27
2023-02-17T09:39:21.310Z,78.96
2023-02-17T09:40:21.299Z,78.85
2023-02-17T09:41:21.358Z,77.92
2023-02-17T09:42:21.281Z,78.33
2023-02-17T09:43:21.294Z,78.75
2023-02-17T09:44:21.291Z,78.85
2023-02-17T09:45:21.331Z,78.13
2023-02-17T09:46:21.252Z,78.24
2023-02-17T09:47:21.383Z,78.64
2023-02-17T09:48:21.214Z,79.78
2023-02-17T09:49:21.220Z,79.47
2023-02-17T09:50:21.165Z,78.96
2023-02-17T09:51:21.156Z,78.44
2023-02-17T09:52:21.212Z,79.26
2023-02-17T09:53:21.178Z,79.16
2023-02-17T09:54:21.130Z,79.68
2023-02-17T09:55:21.223Z,79.16
2023-02-17T09:56:21.148Z,79.16
2023-02-17T09:57:21.152Z,79.06
2023-02-17T09:58:21.079Z,78.85
2023-02-17T09:59:21.043Z,79.47
2023-02-17T10:00:21.029Z,80.19
2023-02-17T10:01:21.139Z,80.81
2023-02-17T10:02:21.044Z,81.63
2023-02-17T10:03:21.043Z,82.56
2023-02-17T10:04:21.200Z,82.25
2023-02-17T10:05:21.088Z,81.53
2023-02-17T10:06:20.989Z,82.15
2023-02-17T10:07:20.951Z,83.17
2023-02-17T10:08:20.961Z,83.17
2023-02-17T10:09:20.919Z,83.38
2023-02-17T10:10:21.026Z,83.28
2023-02-17T10:11:20.886Z,83.79
2023-02-17T10:12:20.871Z,84.10
2023-02-17T10:13:20.875Z,83.86
2023-02-17T10:14:20.847Z,83.28
2023-02-17T10:15:20.981Z,83.07
2023-02-17T10:16:20.974Z,83.69
2023-02-17T10:17:20.860Z,83.89
2023-02-17T10:18:20.791Z,83.79
2023-02-17T10:19:20.778Z,83.69
2023-02-17T10:20:20.974Z,83.48
2023-02-17T10:21:20.753Z,82.45
2023-02-17T10:22:20.778Z,82.87
2023-02-17T10:23:20.732Z,82.76
2023-02-17T10:24:20.829Z,82.56
2023-02-17T10:25:20.749Z,83.07
2023-02-17T10:26:20.849Z,83.48
2023-02-17T10:27:20.791Z,83.89
2023-02-17T10:28:20.659Z,83.89
2023-02-17T10:29:20.731Z,83.79
2023-02-17T10:30:20.747Z,83.69
2023-02-17T10:31:20.795Z,83.48
2023-02-17T10:32:20.753Z,83.38
2023-02-17T10:33:20.595Z,83.59
2023-02-17T10:34:20.668Z,83.89
2023-02-17T10:35:20.641Z,84.31
2023-02-17T10:36:20.639Z,84.51
2023-02-17T10:37:20.543Z,84.51
2023-02-17T10:38:20.534Z,84.21
2023-02-17T10:39:20.516Z,84.51
2023-02-17T10:40:20.631Z,84.41
2023-02-17T10:41:20.490Z,84.21
2023-02-17T10:42:20.479Z,84.51
2023-02-17T10:43:20.465Z,85.40
2023-02-17T10:44:20.448Z,85.09
2023-02-17T10:45:20.445Z,85.30
2023-02-17T10:46:20.470Z,85.40
2023-02-17T10:47:20.414Z,85.30
2023-02-17T10:48:20.398Z,85.09
2023-02-17T10:49:20.396Z,84.88
2023-02-17T10:50:20.460Z,84.79
2023-02-17T10:51:20.358Z,84.79
2023-02-17T10:52:20.373Z,84.79
2023-02-17T10:53:20.346Z,84.79
2023-02-17T10:54:20.317Z,84.79
2023-02-17T10:55:23.162Z,84.88
2023-02-17T10:56:20.290Z,84.88
2023-02-17T10:57:20.280Z,84.88
2023-02-17T10:58:20.279Z,84.79
2023-02-17T10:59:20.255Z,85.30
2023-02-17T11:00:20.359Z,85.09
2023-02-17T11:01:20.227Z,84.88
2023-02-17T11:02:20.235Z,84.99
2023-02-17T11:03:20.202Z,84.88
2023-02-17T11:04:20.186Z,84.58
2023-02-17T11:05:20.223Z,84.47
2023-02-17T11:06:20.178Z,84.58
2023-02-17T11:07:20.156Z,85.51
2023-02-17T11:08:20.158Z,85.61
2023-02-17T11:09:20.127Z,85.30
2023-02-17T11:10:20.155Z,85.40
2023-02-17T11:11:20.093Z,85.81
2023-02-17T11:12:20.086Z,85.51
2023-02-17T11:13:20.071Z,84.79
2023-02-17T11:14:20.059Z,83.86
2023-02-17T11:15:20.044Z,84.06
2023-02-17T11:16:20.059Z,83.96
2023-02-17T11:17:20.023Z,83.75
2023-02-17T11:18:20.014Z,83.75
2023-02-17T11:19:19.993Z,83.75
2023-02-17T11:20:20.137Z,82.93
2023-02-17T11:21:19.966Z,83.55
2023-02-17T11:22:19.957Z,84.68
2023-02-17T11:23:19.941Z,84.79
2023-02-17T11:24:19.949Z,85.30
2023-02-17T11:25:19.916Z,84.95
2023-02-17T11:26:19.908Z,85.26
2023-02-17T11:27:19.889Z,85.05
2023-02-17T11:28:19.875Z,84.95
2023-02-17T11:29:19.863Z,84.64
2023-02-17T11:30:19.994Z,84.23
2023-02-17T11:31:19.937Z,84.58
2023-02-17T11:32:19.851Z,84.88
2023-02-17T11:33:19.815Z,85.57
2023-02-17T11:34:19.796Z,85.88
2023-02-17T11:35:19.791Z,86.08
2023-02-17T11:36:19.770Z,85.77
2023-02-17T11:37:19.767Z,85.57
2023-02-17T11:38:19.744Z,85.46
2023-02-17T11:39:19.737Z,85.67
2023-02-17T11:40:21.039Z,85.26
2023-02-17T11:41:19.707Z,84.95
2023-02-17T11:42:19.693Z,85.57
2023-02-17T11:43:19.683Z,85.57
2023-02-17T11:44:19.667Z,85.67
2023-02-17T11:45:19.655Z,85.88
2023-02-17T11:46:19.719Z,86.18
2023-02-17T11:47:19.660Z,86.39
2023-02-17T11:48:19.614Z,86.60
2023-02-17T11:49:19.604Z,86.80
2023-02-17T11:50:31.704Z,86.49
2023-02-17T11:51:20.618Z,86.49
2023-02-17T11:52:19.564Z,86.29
2023-02-17T11:53:19.553Z,86.29
2023-02-17T11:54:19.537Z,86.29
2023-02-17T11:55:19.528Z,86.08
2023-02-17T11:56:19.533Z,86.18
2023-02-17T11:57:19.497Z,86.18
2023-02-17T11:58:19.481Z,86.18
2023-02-17T11:59:19.469Z,86.08
2023-02-17T12:00:19.484Z,86.18
2023-02-17T12:01:19.444Z,85.77
2023-02-17T12:02:19.428Z,85.77
2023-02-17T12:03:19.502Z,85.88
2023-02-17T12:04:19.402Z,85.67
2023-02-17T12:05:19.492Z,85.57
2023-02-17T12:06:19.376Z,85.46
2023-02-17T12:07:19.363Z,85.77
2023-02-17T12:08:19.350Z,85.88
2023-02-17T12:09:19.337Z,85.77
2023-02-17T12:10:19.324Z,85.67
2023-02-17T12:11:19.310Z,85.57
2023-02-17T12:12:19.319Z,85.36
2023-02-17T12:13:19.286Z,85.57
2023-02-17T12:14:19.273Z,85.32
2023-02-17T12:15:19.258Z,85.22
2023-02-17T12:16:19.287Z,85.11
2023-02-17T12:17:19.230Z,85.11
2023-02-17T12:18:19.215Z,85.05
2023-02-17T12:19:19.201Z,85.16
2023-02-17T12:20:19.194Z,85.16
2023-02-17T12:21:19.178Z,85.11
2023-02-17T12:22:19.187Z,85.11
2023-02-17T12:23:19.150Z,85.11
2023-02-17T12:24:19.134Z,85.22
2023-02-17T12:25:19.129Z,85.32
2023-02-17T12:26:19.109Z,84.91
2023-02-17T12:27:19.096Z,85.43
2023-02-17T12:28:19.111Z,85.11
2023-02-17T12:29:19.069Z,84.71
2023-02-17T12:30:19.261Z,85.01
2023-02-17T12:31:19.158Z,84.91
2023-02-17T12:32:19.157Z,85.22
2023-02-17T12:33:19.018Z,84.71
2023-02-17T12:34:19.003Z,84.74
2023-02-17T12:35:18.995Z,84.81
2023-02-17T12:36:18.978Z,84.91
2023-02-17T12:37:18.974Z,85.11
2023-02-17T12:38:18.953Z,85.01
2023-02-17T12:39:18.945Z,84.91
2023-02-17T12:40:18.929Z,85.11
2023-02-17T12:41:18.916Z,85.11
2023-02-17T12:42:18.905Z,85.11
2023-02-17T12:43:18.888Z,85.32
2023-02-17T12:44:18.897Z,85.11
2023-02-17T12:45:18.862Z,85.32
2023-02-17T12:46:18.894Z,85.43
2023-02-17T12:47:18.840Z,85.32
2023-02-17T12:48:18.822Z,85.22
2023-02-17T12:49:18.814Z,85.32
2023-02-17T12:50:18.811Z,85.63
2023-02-17T12:51:18.790Z,85.43
2023-02-17T12:52:18.769Z,85.73